createdAt,value
2023-02-15T00:00:11.548Z,16.90
2023-02-15T00:02:38.534Z,17.88
2023-02-15T00:05:05.793Z,18.42
2023-02-15T00:07:32.525Z,17.30
2023-02-15T00:09:59.741Z,16.13
2023-02-15T00:12:26.475Z,16.85
2023-02-15T00:14:53.268Z,17.38
2023-02-15T00:17:19.980Z,17.20
2023-02-15T00:19:46.681Z,18.23
2023-02-15T00:22:13.891Z,17.95
2023-02-15T00:24:41.494Z,16.27
2023-02-15T00:27:10.005Z,16.60
2023-02-15T00:29:37.221Z,16.70
2023-02-15T00:32:04.489Z,16.85
2023-02-15T00:34:31.200Z,17.67
2023-02-15T00:36:58.367Z,18.08
2023-02-15T00:39:25.332Z,17.10
2023-02-15T00:41:52.083Z,17.67
2023-02-15T00:44:18.888Z,17.85
2023-02-15T00:46:45.682Z,17.35
2023-02-15T00:49:12.689Z,17.58
2023-02-15T00:51:40.460Z,18.02
2023-02-15T00:54:07.773Z,18.23
2023-02-15T00:56:34.560Z,18.48
2023-02-15T00:59:01.838Z,17.38
2023-02-15T01:01:28.582Z,17.27
2023-02-15T01:03:55.397Z,17.52
2023-02-15T01:06:22.293Z,17.13
2023-02-15T01:08:49.511Z,17.05
2023-02-15T01:11:23.265Z,18.27
2023-02-15T01:16:19.258Z,15.00
2023-02-15T01:18:46.024Z,16.48
2023-02-15T01:21:20.025Z,17.58
2023-02-15T01:26:14.547Z,16.40
2023-02-15T01:28:41.947Z,17.05
2023-02-15T01:31:17.091Z,17.85
2023-02-15T01:33:44.086Z,17.45
2023-02-15T01:36:11.656Z,18.38
2023-02-15T01:38:38.532Z,18.02
2023-02-15T01:41:23.672Z,18.58
2023-02-15T01:43:57.909Z,17.38
2023-02-15T01:46:37.761Z,17.63
2023-02-15T01:49:17.348Z,18.30
2023-02-15T01:51:48.206Z,19.27
2023-02-15T01:54:37.546Z,19.02
2023-02-15T01:57:11.693Z,18.20
2023-02-15T01:59:43.114Z,19.42
2023-02-15T02:02:14.408Z,18.42
2023-02-15T02:04:53.893Z,19.38
2023-02-15T02:07:24.880Z,17.52
2023-02-15T02:09:51.762Z,19.33
2023-02-15T02:12:22.120Z,18.20
2023-02-15T02:14:51.670Z,21.55
2023-02-15T02:17:43.651Z,21.48
2023-02-15T02:20:53.982Z,20.80
2023-02-15T02:23:50.115Z,20.13
2023-02-15T02:27:24.959Z,21.50
2023-02-15T02:30:33.911Z,21.08
2023-02-15T02:33:56.514Z,21.08
2023-02-15T02:36:48.603Z,18.85
2023-02-15T02:39:49.067Z,21.55
2023-02-15T02:42:36.694Z,21.73
2023-02-15T02:45:32.960Z,21.38
2023-02-15T02:48:20.631Z,22.80
2023-02-15T02:50:47.345Z,24.40
2023-02-15T02:53:14.041Z,24.17
2023-02-15T02:55:53.109Z,26.10
2023-02-15T02:58:30.248Z,26.33
2023-02-15T03:01:07.330Z,27.27
2023-02-15T03:03:43.579Z,26.95
2023-02-15T03:06:24.694Z,27.05
2023-02-15T03:09:04.085Z,25.40
2023-02-15T03:11:31.591Z,24.90
2023-02-15T03:13:59.176Z,26.13
2023-02-15T03:16:27.097Z,27.80
2023-02-15T03:19:11.154Z,27.40
2023-02-15T03:21:58.545Z,27.40
2023-02-15T03:24:35.571Z,27.70
2023-02-15T03:27:11.202Z,26.08
2023-02-15T03:29:39.664Z,26.77
2023-02-15T03:32:11.272Z,26.02
2023-02-15T03:34:38.340Z,27.15
2023-02-15T03:37:31.582Z,28.27
2023-02-15T03:40:25.588Z,26.25
2023-02-15T03:43:13.825Z,27.52
2023-02-15T03:45:55.446Z,27.80
2023-02-15T03:48:40.809Z,27.90
2023-02-15T03:51:34.605Z,26.60
2023-02-15T03:54:38.101Z,26.48
2023-02-15T03:57:26.524Z,27.25
2023-02-15T04:00:11.943Z,27.35
2023-02-15T04:03:15.683Z,26.45
2023-02-15T04:05:45.855Z,25.35
2023-02-15T04:08:13.832Z,24.67
2023-02-15T04:10:57.199Z,25.92
2023-02-15T04:13:31.686Z,27.30
2023-02-15T04:16:05.984Z,25.33
2023-02-15T04:18:58.835Z,25.75
2023-02-15T04:21:47.393Z,25.83
2023-02-15T04:24:33.230Z,26.85
2023-02-15T04:27:00.820Z,27.98
2023-02-15T04:29:28.664Z,26.13
2023-02-15T04:32:00.450Z,26.75
2023-02-15T04:34:27.708Z,27.02
2023-02-15T04:36:54.427Z,26.02
2023-02-15T04:39:21.160Z,26.27
2023-02-15T04:41:48.717Z,25.58
2023-02-15T04:44:15.924Z,25.20
2023-02-15T04:46:42.668Z,24.65
2023-02-15T04:49:10.315Z,26.08
2023-02-15T04:51:37.464Z,24.33
2023-02-15T04:54:04.397Z,23.88
2023-02-15T04:56:32.130Z,24.40
2023-02-15T04:58:58.844Z,24.88
2023-02-15T05:01:25.640Z,24.25
2023-02-15T05:03:52.414Z,24.45
2023-02-15T05:06:19.216Z,23.83
2023-02-15T05:08:46.528Z,25.90
2023-02-15T05:11:13.296Z,24.52
2023-02-15T05:13:40.004Z,23.30
2023-02-15T05:16:06.771Z,23.85
2023-02-15T05:18:33.625Z,24.95
2023-02-15T05:21:00.354Z,24.65
2023-02-15T05:23:27.439Z,24.80
2023-02-15T05:26:12.672Z,25.00
2023-02-15T05:28:40.062Z,26.38
2023-02-15T05:31:16.025Z,25.23
2023-02-15T05:33:43.804Z,25.35
2023-02-15T05:36:11.782Z,25.63
2023-02-15T05:38:39.553Z,24.73
2023-02-15T05:41:08.576Z,23.55
2023-02-15T05:43:36.050Z,24.10
2023-02-15T05:46:04.895Z,24.45
2023-02-15T05:48:32.811Z,24.70
2023-02-15T05:51:16.783Z,23.58
2023-02-15T05:53:43.811Z,26.55
2023-02-15T05:56:12.918Z,24.70
2023-02-15T05:58:42.484Z,24.42
2023-02-15T06:01:16.298Z,24.38
2023-02-15T06:03:43.235Z,26.70
2023-02-15T06:06:10.776Z,25.05
2023-02-15T06:08:39.016Z,25.33
2023-02-15T06:11:06.775Z,25.58
2023-02-15T06:13:38.034Z,26.35
2023-02-15T06:16:06.898Z,26.52
2023-02-15T06:18:33.956Z,25.90
2023-02-15T06:21:00.860Z,25.50
2023-02-15T06:23:27.636Z,26.58
2023-02-15T06:25:54.364Z,25.85
2023-02-15T06:28:21.116Z,27.05
2023-02-15T06:30:48.014Z,26.13
2023-02-15T06:33:14.794Z,24.40
2023-02-15T06:35:41.507Z,24.52
2023-02-15T06:38:08.233Z,25.33
2023-02-15T06:40:35.014Z,25.08
2023-02-15T06:43:01.804Z,24.23
2023-02-15T06:45:28.553Z,25.88
2023-02-15T06:47:55.262Z,26.58
2023-02-15T06:50:21.970Z,26.80
2023-02-15T06:52:48.779Z,24.98
2023-02-15T06:55:15.658Z,26.02
2023-02-15T06:57:42.587Z,24.55
2023-02-15T07:00:10.057Z,25.85
2023-02-15T07:02:37.223Z,26.42
2023-02-15T07:05:06.096Z,27.20
2023-02-15T07:07:33.027Z,26.10
2023-02-15T07:09:59.789Z,24.85
2023-02-15T07:12:45.495Z,25.73
2023-02-15T07:15:16.621Z,24.88
2023-02-15T07:17:44.548Z,24.60
2023-02-15T07:20:23.840Z,26.45
2023-02-15T07:22:51.476Z,25.45
2023-02-15T07:25:19.251Z,26.67
2023-02-15T07:27:46.675Z,26.10
2023-02-15T07:30:17.424Z,26.10
2023-02-15T07:33:05.556Z,23.92
2023-02-15T07:35:33.597Z,24.05
2023-02-15T07:38:01.904Z,23.38
2023-02-15T07:40:28.678Z,27.10
2023-02-15T07:43:00.072Z,26.00
2023-02-15T07:45:27.861Z,24.98
2023-02-15T07:47:54.606Z,24.17
2023-02-15T07:50:21.322Z,25.67
2023-02-15T07:52:48.078Z,24.52
2023-02-15T07:55:14.946Z,22.42
2023-02-15T07:57:46.571Z,23.70
2023-02-15T08:00:19.227Z,24.20
2023-02-15T08:03:10.625Z,25.00
2023-02-15T08:05:37.608Z,23.65
2023-02-15T08:08:04.940Z,24.08
2023-02-15T08:11:03.980Z,24.73
2023-02-15T08:13:30.691Z,23.50
2023-02-15T08:15:57.421Z,25.17
2023-02-15T08:18:24.230Z,24.60
2023-02-15T08:20:51.463Z,25.60
2023-02-15T08:23:18.254Z,25.65
2023-02-15T08:25:45.103Z,25.40
2023-02-15T08:28:12.127Z,26.55
2023-02-15T08:30:38.913Z,25.02
2023-02-15T08:33:05.627Z,24.98
2023-02-15T08:35:32.506Z,24.83
2023-02-15T08:37:59.267Z,24.27
2023-02-15T08:40:25.991Z,24.58
2023-02-15T08:42:52.721Z,24.75
2023-02-15T08:45:19.472Z,26.20
2023-02-15T08:47:46.416Z,25.35
2023-02-15T08:50:13.147Z,25.13
2023-02-15T08:52:39.883Z,25.45
2023-02-15T08:55:06.885Z,24.30
2023-02-15T08:57:33.590Z,24.55
2023-02-15T09:00:00.368Z,25.83
2023-02-15T09:02:27.148Z,24.00
2023-02-15T09:04:54.099Z,24.95
2023-02-15T09:07:21.217Z,23.60
2023-02-15T09:09:48.120Z,23.67
2023-02-15T09:12:14.842Z,22.90
2023-02-15T09:14:41.593Z,23.27
2023-02-15T09:17:08.331Z,22.23
2023-02-15T09:19:35.172Z,22.73
2023-02-15T09:22:01.924Z,23.33
2023-02-15T09:24:32.421Z,21.80
2023-02-15T09:26:59.126Z,22.63
2023-02-15T09:29:25.842Z,22.98
2023-02-15T09:31:54.451Z,23.50
2023-02-15T09:34:23.447Z,21.80
2023-02-15T09:36:52.084Z,22.38
2023-02-15T09:39:20.606Z,23.23
2023-02-15T09:41:56.084Z,22.45
2023-02-15T09:44:53.742Z,23.58
2023-02-15T09:47:53.535Z,22.85
2023-02-15T09:50:30.538Z,21.02
2023-02-15T09:53:39.589Z,22.38
2023-02-15T09:56:39.761Z,21.30
2023-02-15T09:59:38.436Z,20.67
2023-02-15T10:02:25.519Z,21.05
2023-02-15T10:05:08.402Z,19.67
2023-02-15T10:08:41.686Z,19.45
2023-02-15T10:11:46.273Z,19.65
2023-02-15T10:14:39.071Z,18.77
2023-02-15T10:17:27.033Z,20.27
2023-02-15T10:20:30.176Z,18.55
2023-02-15T10:23:40.743Z,20.48
2023-02-15T10:26:42.703Z,19.60
2023-02-15T10:29:43.060Z,19.30
2023-02-15T10:32:25.109Z,19.13
2023-02-15T10:35:12.646Z,19.42
2023-02-15T10:38:09.135Z,20.30
2023-02-15T10:41:05.412Z,19.67
2023-02-15T10:43:57.143Z,19.52
2023-02-15T10:47:01.359Z,19.42
2023-02-15T10:49:51.753Z,21.30
2023-02-15T10:52:35.991Z,21.95
2023-02-15T10:55:43.197Z,21.45
2023-02-15T10:58:21.699Z,21.42
2023-02-15T11:01:01.595Z,22.17
2023-02-15T11:04:09.023Z,21.48
2023-02-15T11:06:43.615Z,20.70
2023-02-15T11:09:18.996Z,21.25
2023-02-15T11:11:53.815Z,20.70
2023-02-15T11:14:47.472Z,19.98
2023-02-15T11:17:23.185Z,21.53
2023-02-15T11:20:09.757Z,20.48
2023-02-15T11:22:37.171Z,22.30
2023-02-15T11:25:20.232Z,21.98
2023-02-15T11:27:50.383Z,19.58
2023-02-15T11:30:41.793Z,19.52
2023-02-15T11:33:23.324Z,20.70
2023-02-15T11:36:12.950Z,21.27
2023-02-15T11:38:44.673Z,23.77
2023-02-15T11:41:15.844Z,22.42
2023-02-15T11:44:07.967Z,21.50
2023-02-15T11:46:35.367Z,19.52
2023-02-15T11:49:03.840Z,19.75
2023-02-15T11:51:30.667Z,18.27
2023-02-15T11:53:57.658Z,18.48
2023-02-15T11:56:27.011Z,18.38
2023-02-15T11:59:03.992Z,18.15
2023-02-15T12:01:43.294Z,17.48
2023-02-15T12:04:31.269Z,17.15
2023-02-15T12:07:23.476Z,16.02
2023-02-15T12:10:05.067Z,16.73
2023-02-15T12:12:35.902Z,18.65
2023-02-15T12:15:09.838Z,17.65
2023-02-15T12:20:16.433Z,16.08
2023-02-15T12:23:05.165Z,17.17
2023-02-15T12:25:52.847Z,16.88
2023-02-15T12:28:40.400Z,15.65
2023-02-15T12:31:28.022Z,17.92
2023-02-15T12:33:59.069Z,16.45
2023-02-15T12:36:51.703Z,16.27
2023-02-15T12:39:36.926Z,15.75
2023-02-15T12:42:16.949Z,16.23
2023-02-15T12:45:20.722Z,14.73
2023-02-15T12:48:07.875Z,16.80
2023-02-15T12:50:35.295Z,15.75
2023-02-15T12:53:26.381Z,16.73
2023-02-15T12:55:58.113Z,17.83
2023-02-15T12:58:31.924Z,15.55
2023-02-15T13:01:13.635Z,15.63
2023-02-15T13:04:04.259Z,16.08
2023-02-15T13:06:37.491Z,16.55
2023-02-15T13:09:40.563Z,14.77
2023-02-15T13:12:27.372Z,14.80
2023-02-15T13:14:56.254Z,15.05
2023-02-15T13:17:30.547Z,15.07
2023-02-15T13:20:02.823Z,13.90
2023-02-15T13:22:45.640Z,15.50
2023-02-15T13:25:30.659Z,14.52
2023-02-15T13:28:04.316Z,13.27
2023-02-15T13:30:39.706Z,14.57
2023-02-15T13:33:18.834Z,14.05
2023-02-15T13:36:03.406Z,13.75
2023-02-15T13:39:11.724Z,13.98
2023-02-15T13:42:03.266Z,11.88
2023-02-15T13:45:26.432Z,13.13
2023-02-15T13:48:34.145Z,12.30
2023-02-15T13:51:27.348Z,12.02
2023-02-15T13:54:37.208Z,13.70
2023-02-15T13:57:41.665Z,12.95
2023-02-15T14:00:59.180Z,12.40
2023-02-15T14:04:05.587Z,12.40
2023-02-15T14:06:59.208Z,13.55
2023-02-15T14:09:32.211Z,12.95
2023-02-15T14:12:04.737Z,13.32
2023-02-15T14:15:13.055Z,14.45
2023-02-15T14:17:59.291Z,13.30
2023-02-15T14:20:42.183Z,13.73
2023-02-15T14:23:50.094Z,14.73
2023-02-15T14:26:38.285Z,13.18
2023-02-15T14:29:37.667Z,13.35
2023-02-15T14:32:47.226Z,13.57
2023-02-15T14:35:25.870Z,12.80
2023-02-15T14:38:10.761Z,13.90
2023-02-15T14:41:13.477Z,14.30
2023-02-15T14:43:59.710Z,14.57
2023-02-15T14:46:51.252Z,14.38
2023-02-15T14:49:32.302Z,13.73
2023-02-15T14:52:08.057Z,13.00
2023-02-15T14:54:34.734Z,14.30
2023-02-15T14:57:01.391Z,14.13
2023-02-15T14:59:59.110Z,14.10
2023-02-15T15:02:27.528Z,14.20
2023-02-15T15:05:11.555Z,13.77
2023-02-15T15:07:49.683Z,13.07
2023-02-15T15:10:17.757Z,13.48
2023-02-15T15:12:53.457Z,13.27
2023-02-15T15:15:31.880Z,13.85
2023-02-15T15:18:10.484Z,13.70
2023-02-15T15:20:52.665Z,14.00
2023-02-15T15:23:19.343Z,13.38
2023-02-15T15:25:57.739Z,12.63
2023-02-15T15:28:36.299Z,12.68
2023-02-15T15:31:42.951Z,12.57
2023-02-15T15:34:52.209Z,11.73
2023-02-15T15:37:48.342Z,11.70
2023-02-15T15:40:41.628Z,10.32
2023-02-15T15:44:02.411Z,11.18
2023-02-15T15:47:10.367Z,11.18
2023-02-15T15:49:40.203Z,12.40
2023-02-15T15:52:20.015Z,13.68
2023-02-15T15:54:53.844Z,13.20
2023-02-15T15:57:40.387Z,12.98
2023-02-15T16:00:36.094Z,14.13
2023-02-15T16:03:03.454Z,13.25
2023-02-15T16:05:38.465Z,14.30
2023-02-15T16:08:06.361Z,14.82
2023-02-15T16:10:35.091Z,15.68
2023-02-15T16:13:03.135Z,17.15
2023-02-15T16:15:46.049Z,16.90
2023-02-15T16:18:19.097Z,16.05
2023-02-15T16:20:57.862Z,15.83
2023-02-15T16:23:56.143Z,14.77
2023-02-15T16:27:04.344Z,14.65
2023-02-15T16:29:34.207Z,15.50
2023-02-15T16:32:28.968Z,14.77
2023-02-15T16:34:59.730Z,14.23
2023-02-15T16:37:34.535Z,14.23
2023-02-15T16:40:01.595Z,13.93
2023-02-15T16:42:28.579Z,13.13
2023-02-15T16:45:17.078Z,13.27
2023-02-15T16:47:49.940Z,12.30
2023-02-15T16:50:38.555Z,12.25
2023-02-15T16:53:14.718Z,12.07
2023-02-15T16:55:43.873Z,12.57
2023-02-15T16:58:17.497Z,12.90
2023-02-15T17:00:45.107Z,11.40
2023-02-15T17:03:14.819Z,12.93
2023-02-15T17:05:50.838Z,11.88
2023-02-15T17:08:20.719Z,11.88
2023-02-15T17:11:10.810Z,10.82
2023-02-15T17:13:37.708Z,11.55
2023-02-15T17:16:04.730Z,10.80
2023-02-15T17:18:39.132Z,10.98
2023-02-15T17:21:28.610Z,10.55
2023-02-15T17:24:01.449Z,10.88
2023-02-15T17:26:34.109Z,12.32
2023-02-15T17:29:34.994Z,13.27
2023-02-15T17:32:03.015Z,12.88
2023-02-15T17:35:00.675Z,14.30
2023-02-15T17:37:39.711Z,13.85
2023-02-15T17:40:25.735Z,15.63
2023-02-15T17:42:53.513Z,15.13
2023-02-15T17:45:22.425Z,15.48
2023-02-15T17:47:50.357Z,15.60
2023-02-15T17:50:26.136Z,16.40
2023-02-15T17:52:56.272Z,15.52
2023-02-15T17:55:40.039Z,17.10
2023-02-15T17:58:22.771Z,16.00
2023-02-15T18:01:15.972Z,15.43
2023-02-15T18:04:08.388Z,16.58
2023-02-15T18:06:57.670Z,16.67
2023-02-15T18:09:44.716Z,17.02
2023-02-15T18:12:26.612Z,17.35
2023-02-15T18:14:55.154Z,18.02
2023-02-15T18:17:46.970Z,18.30
2023-02-15T18:20:28.154Z,19.15
2023-02-15T18:22:55.272Z,19.58
2023-02-15T18:25:25.459Z,18.13
2023-02-15T18:27:54.844Z,16.90
2023-02-15T18:30:26.479Z,17.33
2023-02-15T18:32:57.125Z,17.05
2023-02-15T18:35:28.416Z,16.73
2023-02-15T18:37:55.592Z,15.77
2023-02-15T18:40:27.471Z,16.48
2023-02-15T18:42:56.902Z,16.38
2023-02-15T18:45:28.737Z,16.67
2023-02-15T18:47:55.568Z,16.33
2023-02-15T18:50:29.006Z,15.10
2023-02-15T18:52:55.781Z,16.02
2023-02-15T18:55:27.939Z,15.90
2023-02-15T18:57:57.332Z,15.55
2023-02-15T19:00:34.227Z,16.17
2023-02-15T19:03:02.651Z,16.08
2023-02-15T19:05:31.970Z,16.23
2023-02-15T19:08:01.602Z,16.67
2023-02-15T19:10:31.796Z,16.85
2023-02-15T19:12:59.300Z,17.02
2023-02-15T19:15:30.438Z,16.63
2023-02-15T19:17:57.388Z,16.35
2023-02-15T19:20:36.220Z,17.98
2023-02-15T19:23:03.774Z,16.92
2023-02-15T19:25:37.586Z,16.35
2023-02-15T19:28:16.170Z,17.00
2023-02-15T19:30:43.388Z,18.27
2023-02-15T19:33:20.106Z,18.10
2023-02-15T19:35:52.406Z,18.88
2023-02-15T19:38:26.073Z,18.80
2023-02-15T19:40:53.110Z,18.90
2023-02-15T19:43:26.875Z,18.33
2023-02-15T19:45:53.888Z,17.10
2023-02-15T19:48:20.672Z,17.33
2023-02-15T19:50:48.983Z,17.42
2023-02-15T19:53:25.574Z,18.05
2023-02-15T19:55:53.177Z,17.88
2023-02-15T19:58:20.474Z,17.58
2023-02-15T20:00:49.924Z,18.10
2023-02-15T20:03:17.317Z,18.38
2023-02-15T20:05:45.326Z,18.17
2023-02-15T20:08:18.466Z,17.73
2023-02-15T20:10:45.964Z,18.13
2023-02-15T20:13:18.548Z,18.55
2023-02-15T20:15:46.686Z,18.23
2023-02-15T20:18:13.850Z,17.77
2023-02-15T20:20:49.404Z,18.42
2023-02-15T20:23:37.214Z,19.13
2023-02-15T20:26:18.337Z,18.77
2023-02-15T20:28:46.736Z,19.58
2023-02-15T20:31:20.309Z,19.23
2023-02-15T20:33:50.740Z,18.38
2023-02-15T20:36:20.881Z,17.58
2023-02-15T20:38:48.219Z,18.83
2023-02-15T20:41:36.124Z,18.63
2023-02-15T20:44:27.640Z,18.23
2023-02-15T20:46:57.137Z,17.05
2023-02-15T20:49:26.195Z,17.50
2023-02-15T20:51:57.244Z,17.27
2023-02-15T20:54:29.200Z,17.73
2023-02-15T20:56:55.921Z,17.95
2023-02-15T20:59:32.356Z,17.52
2023-02-15T21:02:02.784Z,17.60
2023-02-15T21:04:33.171Z,16.80
2023-02-15T21:07:01.051Z,16.58
2023-02-15T21:09:28.229Z,16.83
2023-02-15T21:11:58.254Z,16.50
2023-02-15T21:14:28.305Z,17.33
2023-02-15T21:16:55.242Z,15.38
2023-02-15T21:19:24.680Z,15.63
2023-02-15T21:21:53.387Z,15.35
2023-02-15T21:24:28.914Z,15.73
2023-02-15T21:27:00.045Z,15.27
2023-02-15T21:29:29.192Z,14.93
2023-02-15T21:32:00.353Z,15.05
2023-02-15T21:34:27.258Z,15.57
2023-02-15T21:36:54.148Z,14.35
2023-02-15T21:39:27.779Z,16.60
2023-02-15T21:42:14.954Z,15.90
2023-02-15T21:45:00.987Z,16.35
2023-02-15T21:47:50.117Z,15.95
2023-02-15T21:50:42.125Z,16.05
2023-02-15T21:53:19.866Z,14.77
2023-02-15T21:55:46.605Z,15.90
2023-02-15T21:58:22.919Z,15.63
2023-02-15T22:00:50.258Z,15.43
2023-02-15T22:03:17.206Z,16.45
2023-02-15T22:05:44.026Z,16.05
2023-02-15T22:08:14.156Z,16.05
2023-02-15T22:10:42.582Z,15.73
2023-02-15T22:13:16.066Z,15.63
2023-02-15T22:15:46.564Z,15.25
2023-02-15T22:18:24.194Z,15.07
2023-02-15T22:20:52.408Z,14.80
2023-02-15T22:23:19.754Z,14.15
2023-02-15T22:25:57.777Z,15.32
2023-02-15T22:28:35.890Z,14.13
2023-02-15T22:31:06.712Z,13.70
2023-02-15T22:33:34.741Z,14.02
2023-02-15T22:36:02.283Z,14.20
2023-02-15T22:38:29.053Z,13.85
2023-02-15T22:41:03.644Z,13.07
2023-02-15T22:43:40.152Z,12.88
2023-02-15T22:46:22.244Z,13.02
2023-02-15T22:48:49.815Z,13.60
2023-02-15T22:51:21.164Z,13.65
2023-02-15T22:53:51.752Z,13.20
2023-02-15T22:56:36.636Z,12.88
2023-02-15T22:59:19.220Z,12.23
2023-02-15T23:01:46.570Z,12.40
2023-02-15T23:04:20.210Z,12.38
2023-02-15T23:06:47.873Z,12.23
2023-02-15T23:09:16.362Z,12.80
2023-02-15T23:11:44.216Z,12.25
2023-02-15T23:14:19.868Z,12.23
2023-02-15T23:16:46.621Z,11.80
2023-02-15T23:19:15.577Z,12.98
2023-02-15T23:21:42.903Z,12.48
2023-02-15T23:24:26.867Z,12.15
2023-02-15T23:26:54.759Z,12.23
2023-02-15T23:29:23.829Z,11.93
2023-02-15T23:31:53.466Z,13.07
2023-02-15T23:34:27.644Z,13.05
2023-02-15T23:39:47.035Z,11.57
2023-02-15T23:42:21.327Z,13.23
2023-02-15T23:44:48.678Z,12.60
2023-02-15T23:47:44.089Z,14.80
2023-02-15T23:50:27.071Z,13.23
2023-02-15T23:52:55.388Z,12.45
2023-02-15T23:55:25.459Z,11.38
2023-02-15T23:57:53.473Z,11.45
